Terminal Aerodrome Forecast
Issued by NWS

Home | Current Version | Previous Version | Text Only | Print | Product List | Glossary On
Versions: 1 2 3 4 5 6 7 8 9 10 11 12 13 14
000
FTUS46 KPDT 030520
TAFPSC
TAF
KPSC 030520Z 0306/0406 21008G15KT P6SM BKN050 OVC080
     FM031200 24008KT P6SM SCT090 BKN150
     FM031800 24008G15KT P6SM SCT150
     FM040300 22008G15KT P6SM SCT060 OVC090=

USA.gov is the U.S. government's official web portal to all federal, state and local government web resources and services.